Flight Track Log - Related Links

Times and Time Zones

All times are in EDT time to prevent confusion due to time zone crossing. See the SWA862 flight status page for this flight to view local times or setup timezone preferences in your user account.

Time Position Orientation Groundspeed Altitude Reporting Facility
EDT Latitude Longitude Course Direction KTS MPH feet Rate Location/Type
Sat 07:44:25 AM 39.7333 -86.2833 27° Northeast 171 197 1,700  Level Indianapolis TRACON
Sat 07:45:31 AM 39.7833 -86.2500 27° Northeast 244 281 4,000 2,333 Climbing Indianapolis TRACON
Sat 07:46:31 AM 39.8167 -86.3167 303° West 275 316 6,600 2,640 Climbing Indianapolis TRACON
Sat 07:47:11 AM 39.8006 -86.3750 250° West 266 306 8,400 2,520 Climbing Indianapolis Center
Sat 07:48:11 AM 39.7772 -86.4731 253° West 286 329 10,800 1,983 Climbing Indianapolis Center
Sat 07:49:12 AM 39.7697 -86.5972 266° West 336 387 12,400 2,066 Climbing Indianapolis Center
Sat 07:50:13 AM 39.7597 -86.7300 264° West 360 414 15,000 2,361 Climbing Indianapolis Center
Sat 07:51:14 AM 39.7497 -86.8658 265° West 372 428 17,200 1,918 Climbing Indianapolis Center
Sat 07:52:15 AM 39.7392 -87.0072 264° West 389 448 18,900 1,869 Climbing Indianapolis Center
Sat 07:53:16 AM 39.7286 -87.1489 265° West 392 451 21,000 1,820 Climbing Indianapolis Center
Sat 07:54:17 AM 39.7172 -87.2947 264° West 403 464 22,600 1,918 Climbing Indianapolis Center
Sat 07:55:18 AM 39.7067 -87.4411 265° West 404 465 24,900 1,967 Climbing Indianapolis Center
Sat 07:56:19 AM 39.6950 -87.5817 264° West 392 451 26,600 1,967 Climbing Indianapolis Center
Sat 07:57:20 AM 39.6833 -87.7214 264° West 387 445 28,900 2,361 Climbing Indianapolis Center
Sat 07:58:21 AM 39.6708 -87.8703 264° West 361 415 31,400 1,475 Climbing Indianapolis Center
Sat 07:59:22 AM 39.6606 -87.9939 264° West 345 397 31,900 246 Climbing Indianapolis Center
Sat 08:00:23 AM 39.6497 -88.1203 264° West 349 402 31,900 50 Level Indianapolis Center
Sat 08:01:22 AM 39.6406 -88.2372 264° West 347 399 32,000 50 Climbing Kansas City Center
Sat 08:02:23 AM 39.6311 -88.3619 264° West 347 399 32,000  Level Kansas City Center
Sat 08:03:24 AM 39.6192 -88.4850 263° West 345 397 32,000  Level Kansas City Center
Sat 08:04:25 AM 39.6078 -88.6058 263° West 347 399 32,000  Level Kansas City Center
Sat 08:05:25 AM 39.5967 -88.7286 263° West 345 397 32,000  Level Kansas City Center
Sat 08:06:26 AM 39.5931 -88.8511 268° West 343 395 32,000  Level Kansas City Center
Sat 08:07:27 AM 39.6303 -88.9722 292° West 356 410 32,000  Level Kansas City Center
Sat 08:08:28 AM 39.6506 -89.0969 282° West 361 415 32,000  Level Kansas City Center
Sat 08:09:28 AM 39.6353 -89.2206 261° West 352 405 32,000 545 Level Kansas City Center
Sat 08:10:29 AM 39.6181 -89.3622 261° West 351 404 33,100 984 Climbing Kansas City Center
Sat 08:11:30 AM 39.6022 -89.4878 261° West 354 407 34,000 443 Climbing Kansas City Center
Sat 08:12:31 AM 39.5861 -89.6125 261° West 352 405 34,000  Level Kansas City Center
Sat 08:13:32 AM 39.5692 -89.7386 260° West 356 410 34,000  Level Kansas City Center
Sat 08:14:32 AM 39.5528 -89.8656 261° West 358 412 34,000  Level Kansas City Center
Sat 08:15:33 AM 39.5358 -89.9925 260° West 359 413 34,000  Level Kansas City Center
Sat 08:16:34 AM 39.5189 -90.1214 260° West 363 418 34,000 98 Level Kansas City Center
Sat 08:17:35 AM 39.5022 -90.2492 260° West 363 418 34,200 984 Climbing Kansas City Center
Sat 08:18:36 AM 39.4856 -90.3722 260° West 356 410 36,000 885 Climbing Kansas City Center
Sat 08:19:37 AM 39.4689 -90.4903 260° West 342 394 36,000  Level Kansas City Center
Sat 08:20:38 AM 39.4483 -90.6331 259° West 339 390 36,000  Level Kansas City Center
Sat 08:21:39 AM 39.4317 -90.7547 260° West 343 395 36,000  Level Kansas City Center
Sat 08:22:40 AM 39.4136 -90.8758 259° West 345 397 36,000  Level Kansas City Center
Sat 08:23:40 AM 39.3972 -90.9978 260° West 345 397 36,000  Level Kansas City Center
Sat 08:24:41 AM 39.3794 -91.1178 259° West 344 396 36,000  Level Kansas City Center
Sat 08:25:42 AM 39.3622 -91.2403 260° West 346 398 36,000  Level Kansas City Center
Sat 08:26:43 AM 39.3442 -91.3633 259° West 348 400 36,000  Level Kansas City Center
Sat 08:27:44 AM 39.3258 -91.4864 259° West 351 404 36,000  Level Kansas City Center
Sat 08:28:45 AM 39.3078 -91.6103 259° West 351 404 36,000  Level Kansas City Center
Sat 08:29:46 AM 39.2881 -91.7394 259° West 354 407 36,000  Level Kansas City Center
Sat 08:30:47 AM 39.2692 -91.8642 259° West 355 409 36,000  Level Kansas City Center
Sat 08:31:48 AM 39.2469 -92.0106 259° West 357 411 36,000  Level Kansas City Center
Sat 08:32:49 AM 39.2283 -92.1350 259° West 354 407 36,000  Level Kansas City Center
Sat 08:33:50 AM 39.2083 -92.2625 259° West 359 413 36,000  Level Kansas City Center
Sat 08:34:51 AM 39.1881 -92.3922 259° West 364 419 36,000  Level Kansas City Center
Sat 08:35:52 AM 39.1681 -92.5217 259° West 367 422 36,000  Level Kansas City Center
Sat 08:36:53 AM 39.1469 -92.6533 258° West 371 427 36,000  Level Kansas City Center
Sat 08:37:54 AM 39.1253 -92.7861 258° West 372 428 36,000  Level Kansas City Center
Sat 08:38:56 AM 39.1036 -92.9167 258° West 375 432 36,000  Level Kansas City Center
Sat 08:39:57 AM 39.0817 -93.0467 258° West 375 432 36,000  Level Kansas City Center
Sat 08:40:58 AM 39.0606 -93.1831 259° West 379 436 36,000  Level Kansas City Center
Sat 08:41:59 AM 39.0383 -93.3189 258° West 384 442 36,000  Level Kansas City Center
Sat 08:43:00 AM 39.0119 -93.4786 258° West 385 443 36,000  Level Kansas City Center
Sat 08:44:01 AM 38.9883 -93.6186 258° West 389 448 36,000  Level Kansas City Center
Sat 08:45:02 AM 38.9664 -93.7481 258° West 386 444 36,000  Level Kansas City Center
Sat 08:46:03 AM 38.9436 -93.8886 258° West 386 444 36,000  Level Kansas City Center
Sat 08:47:04 AM 38.9217 -94.0183 258° West 387 445 36,000  Level Kansas City Center
Sat 08:48:05 AM 38.8986 -94.1500 257° West 392 451 36,000  Level Kansas City Center
Sat 08:49:06 AM 38.8719 -94.3039 257° West 394 453 36,000  Level Kansas City Center
Sat 08:50:07 AM 38.8494 -94.4361 258° West 395 455 36,000  Level Kansas City Center
Sat 08:51:08 AM 38.8253 -94.5686 257° West 396 456 36,000  Level Kansas City Center
Sat 08:52:09 AM 38.7983 -94.7228 257° West 397 457 36,000  Level Kansas City Center
Sat 08:53:10 AM 38.7747 -94.8558 257° West 399 459 36,000  Level Kansas City Center
Sat 08:54:11 AM 38.7506 -94.9894 257° West 401 461 36,000  Level Kansas City Center
Sat 08:55:12 AM 38.7225 -95.1447 257° West 399 459 36,000  Level Kansas City Center
Sat 08:56:13 AM 38.6981 -95.2761 257° West 394 453 36,000  Level Kansas City Center
Sat 08:57:14 AM 38.6742 -95.4133 257° West 405 466 36,000  Level Kansas City Center
Sat 08:58:15 AM 38.6450 -95.5694 257° West 405 466 36,000  Level Kansas City Center
Sat 08:59:16 AM 38.6192 -95.7036 256° West 404 465 36,000  Level Kansas City Center
Sat 09:00:17 AM 38.5942 -95.8400 257° West 408 470 36,000  Level Kansas City Center
Sat 09:01:18 AM 38.5656 -96.0000 257° West 413 475 36,000  Level Kansas City Center
Sat 09:02:19 AM 38.5394 -96.1386 256° West 416 479 36,000  Level Kansas City Center
Sat 09:03:20 AM 38.5100 -96.2744 255° West 416 479 36,000  Level Kansas City Center
Sat 09:04:21 AM 38.4797 -96.4372 257° West 421 484 36,000  Level Kansas City Center
Sat 09:05:22 AM 38.4511 -96.5786 256° West 418 481 36,000  Level Kansas City Center
Sat 09:06:23 AM 38.4231 -96.7228 256° West 419 482 36,000  Level Kansas City Center
Sat 09:07:24 AM 38.3958 -96.8650 256° West 415 478 36,000  Level Kansas City Center
Sat 09:08:25 AM 38.3669 -97.0075 256° West 416 479 36,000  Level Kansas City Center
Sat 09:09:26 AM 38.3392 -97.1486 256° West 412 474 36,000  Level Kansas City Center
Sat 09:10:27 AM 38.3108 -97.2897 256° West 413 475 36,000  Level Kansas City Center
Sat 09:11:28 AM 38.2825 -97.4308 256° West 413 475 36,000  Level Kansas City Center
Sat 09:12:29 AM 38.2533 -97.5714 255° West 413 475 36,000  Level Kansas City Center
Sat 09:13:30 AM 38.2236 -97.7125 255° West 416 479 36,000  Level Kansas City Center
Sat 09:14:31 AM 38.1892 -97.8817 256° West 417 480 36,000  Level Kansas City Center
Sat 09:15:33 AM 38.1597 -98.0217 255° West 417 480 36,000  Level Kansas City Center
Sat 09:16:34 AM 38.1297 -98.1619 255° West 417 480 36,000  Level Kansas City Center
Sat 09:17:35 AM 38.1006 -98.3014 255° West 414 476 36,000  Level Kansas City Center
Sat 09:18:36 AM 38.0711 -98.4439 255° West 419 482 36,000  Level Kansas City Center
Sat 09:19:37 AM 38.0397 -98.5844 254° West 416 479 36,000  Level Kansas City Center
Sat 09:20:38 AM 38.0086 -98.7239 254° West 414 476 36,000  Level Kansas City Center
Sat 09:21:39 AM 37.9800 -98.8653 256° West 414 476 36,000  Level Kansas City Center
Sat 09:22:40 AM 37.9425 -99.0331 254° West 414 476 36,000  Level Kansas City Center
Sat 09:23:41 AM 37.9114 -99.1731 254° West 414 476 36,000  Level Kansas City Center
Sat 09:24:43 AM 37.8797 -99.3136 254° West 415 478 36,000  Level Kansas City Center
Sat 09:25:44 AM 37.8500 -99.4533 255° West 414 476 36,000  Level Kansas City Center
Sat 09:26:45 AM 37.8189 -99.5936 254° West 414 476 36,000  Level Kansas City Center
Sat 09:27:46 AM 37.7836 -99.7500 254° West 414 476 36,000  Level Kansas City Center
Sat 09:28:47 AM 37.7528 -99.8842 254° West 414 476 36,000  Level Kansas City Center
Sat 09:29:48 AM 37.7222 -100.0178 254° West 414 476 36,000  Level Kansas City Center
Sat 09:30:50 AM 37.6853 -100.1731 253° West 413 475 36,000  Level Kansas City Center
Sat 09:31:51 AM 37.6544 -100.3069 254° West 415 478 36,000  Level Kansas City Center
Sat 09:32:52 AM 37.6233 -100.4414 254° West 415 478 36,000  Level Kansas City Center
Sat 09:33:53 AM 37.5903 -100.5811 253° West 416 479 36,000  Level Kansas City Center
Sat 09:34:54 AM 37.5569 -100.7219 253° West 417 480 36,000  Level Kansas City Center
Sat 09:35:55 AM 37.5231 -100.8631 253° West 420 483 36,000  Level Kansas City Center
Sat 09:36:56 AM 37.4825 -101.0333 253° West 423 487 36,000  Level Kansas City Center
Sat 09:37:58 AM 37.4503 -101.1689 253° West 421 484 36,000  Level Kansas City Center
Sat 09:38:59 AM 37.4181 -101.3050 253° West 422 486 36,000  Level Kansas City Center
Sat 09:40:00 AM 37.3792 -101.4636 253° West 424 488 36,000  Level Kansas City Center
Sat 09:41:01 AM 37.3458 -101.5997 253° West 426 490 36,000  Level Kansas City Center
Sat 09:42:02 AM 37.3131 -101.7369 253° West 427 491 36,000  Level Kansas City Center
Sat 09:43:03 AM 37.2731 -101.8942 252° West 424 488 36,000  Level Kansas City Center
Sat 09:43:27 AM 37.2639 -101.9419 256° West 427 491 36,000  Level Albuquerque Center
Sat 09:44:28 AM 37.2214 -102.1017 252° West 432 497 36,000  Level Albuquerque Center
Sat 09:45:29 AM 37.1931 -102.2269 254° West 430 495 36,000  Level Albuquerque Center
Sat 09:46:29 AM 37.1514 -102.3869 252° West 432 497 36,000  Level Albuquerque Center
Sat 09:47:30 AM 37.1172 -102.5247 253° West 432 497 36,000  Level Albuquerque Center
Sat 09:48:31 AM 37.0811 -102.6608 252° West 430 495 36,000  Level Albuquerque Center
Sat 09:49:32 AM 37.0411 -102.8225 253° West 433 498 36,000  Level Albuquerque Center
Sat 09:50:33 AM 37.0056 -102.9606 252° West 435 501 36,000  Level Albuquerque Center
Sat 09:51:33 AM 36.9689 -103.0967 251° West 431 496 36,000  Level Albuquerque Center
Sat 09:52:34 AM 36.9286 -103.2564 253° West 430 495 36,000  Level Albuquerque Center
Sat 09:53:35 AM 36.8925 -103.3939 252° West 431 496 36,000  Level Albuquerque Center
Sat 09:54:36 AM 36.8558 -103.5306 252° West 432 497 36,000  Level Albuquerque Center
Sat 09:55:37 AM 36.8142 -103.6878 252° West 428 493 36,000  Level Albuquerque Center
Sat 09:56:37 AM 36.7786 -103.8231 252° West 427 491 36,000  Level Albuquerque Center
Sat 09:57:38 AM 36.7414 -103.9581 251° West 427 491 36,000  Level Albuquerque Center
Sat 09:58:39 AM 36.6983 -104.1169 251° West 429 494 36,000  Level Albuquerque Center
Sat 09:59:40 AM 36.6619 -104.2514 251° West 430 495 36,000  Level Albuquerque Center
Sat 10:00:41 AM 36.6233 -104.3928 251° West 429 494 36,000  Level Albuquerque Center
Sat 10:01:42 AM 36.5842 -104.5336 251° West 429 494 36,000  Level Albuquerque Center
Sat 10:02:43 AM 36.5456 -104.6764 251° West 431 496 36,000  Level Albuquerque Center
Sat 10:03:44 AM 36.5061 -104.8183 251° West 433 498 36,000  Level Albuquerque Center
Sat 10:04:45 AM 36.4633 -104.9589 249° West 432 497 36,000  Level Albuquerque Center
Sat 10:05:46 AM 36.4142 -105.1019 247° West 443 510 36,000  Level Albuquerque Center
Sat 10:06:47 AM 36.3672 -105.2417 247° West 441 507 36,000  Level Albuquerque Center
Sat 10:07:48 AM 36.3203 -105.3814 247° West 439 505 36,000  Level Albuquerque Center
Sat 10:08:49 AM 36.2722 -105.5200 247° West 436 502 36,000  Level Albuquerque Center
Sat 10:09:50 AM 36.2244 -105.6639 248° West 435 501 36,000  Level Albuquerque Center
Sat 10:10:51 AM 36.1775 -105.8017 247° West 436 502 36,000  Level Albuquerque Center
Sat 10:11:52 AM 36.1311 -105.9375 247° West 432 497 36,000  Level Albuquerque Center
Sat 10:12:54 AM 36.0836 -106.0750 247° West 434 499 36,000  Level Albuquerque Center
Sat 10:13:55 AM 36.0364 -106.2122 247° West 435 501 36,000  Level Albuquerque Center
Sat 10:14:56 AM 35.9897 -106.3492 247° West 435 501 36,000  Level Albuquerque Center
Sat 10:15:57 AM 35.9331 -106.5125 247° West 432 497 36,000  Level Albuquerque Center
Sat 10:16:58 AM 35.8881 -106.6369 246° West 436 502 36,000  Level Albuquerque Center
Sat 10:18:00 AM 35.8344 -106.7919 247° West 439 505 36,000  Level Albuquerque Center
Sat 10:19:01 AM 35.7883 -106.9222 246° West 435 501 36,000  Level Albuquerque Center
Sat 10:20:02 AM 35.7331 -107.0756 246° West 437 503 36,000  Level Albuquerque Center
Sat 10:21:04 AM 35.6867 -107.2053 246° West 435 501 36,000  Level Albuquerque Center
Sat 10:22:05 AM 35.6408 -107.3358 247° West 434 499 36,000  Level Albuquerque Center
Sat 10:23:06 AM 35.5856 -107.4878 246° West 435 501 36,000  Level Albuquerque Center
Sat 10:24:08 AM 35.5375 -107.6186 246° West 436 502 36,000  Level Albuquerque Center
Sat 10:25:09 AM 35.4900 -107.7489 246° West 436 502 36,000  Level Albuquerque Center
Sat 10:26:11 AM 35.4356 -107.9008 246° West 435 501 36,000  Level Albuquerque Center
Sat 10:27:12 AM 35.3872 -108.0319 246° West 437 503 36,000  Level Albuquerque Center
Sat 10:28:14 AM 35.3308 -108.1844 246° West 438 504 36,000  Level Albuquerque Center
Sat 10:29:15 AM 35.2825 -108.3142 245° Southwest 436 502 36,000  Level Albuquerque Center
Sat 10:30:17 AM 35.2344 -108.4450 246° West 438 504 36,000  Level Albuquerque Center
Sat 10:31:18 AM 35.1781 -108.5975 246° West 439 505 36,000  Level Albuquerque Center
Sat 10:32:20 AM 35.1281 -108.7283 245° Southwest 440 506 36,000  Level Albuquerque Center
Sat 10:33:21 AM 35.0717 -108.8808 246° West 439 505 36,000  Level Albuquerque Center
Sat 10:34:23 AM 35.0225 -109.0108 245° Southwest 440 506 36,000  Level Albuquerque Center
Sat 10:35:24 AM 34.9731 -109.1383 245° Southwest 437 503 36,000  Level Albuquerque Center
Sat 10:36:26 AM 34.9189 -109.2892 246° West 434 499 36,000  Level Albuquerque Center
Sat 10:37:27 AM 34.8731 -109.4161 246° West 429 494 36,000  Level Albuquerque Center
Sat 10:38:29 AM 34.8172 -109.5592 245° Southwest 421 484 36,000  Level Albuquerque Center
Sat 10:39:31 AM 34.7708 -109.6867 246° West 425 489 36,000  Level Albuquerque Center
Sat 10:40:32 AM 34.7242 -109.8125 246° West 427 491 36,000  Level Albuquerque Center
Sat 10:41:34 AM 34.6700 -109.9583 246° West 423 487 36,000  Level Albuquerque Center
Sat 10:42:35 AM 34.6239 -110.0836 246° West 424 488 36,000  Level Albuquerque Center
Sat 10:43:37 AM 34.5736 -110.2339 248° West 428 493 36,000 -581 Level Albuquerque Center
Sat 10:44:39 AM 34.5236 -110.3500 242° Southwest 411 473 34,800 -1,463 Descending Albuquerque Center
Sat 10:45:40 AM 34.4839 -110.4675 248° West 416 479 33,000 -1,707 Descending Albuquerque Center
Sat 10:46:42 AM 34.4261 -110.6183 245° Southwest 415 478 31,300 -2,081 Descending Albuquerque Center
Sat 10:47:44 AM 34.3742 -110.7506 245° Southwest 428 493 28,700 -1,902 Descending Albuquerque Center
Sat 10:48:45 AM 34.3053 -110.8633 234° Southwest 422 486 27,400 -1,805 Descending Albuquerque Center
Sat 10:49:47 AM 34.2233 -110.9653 226° Southwest 422 486 25,000 -2,226 Descending Albuquerque Center
Sat 10:50:49 AM 34.1447 -111.0661 227° Southwest 416 479 22,800 -2,129 Descending Albuquerque Center
Sat 10:51:51 AM 34.0700 -111.1628 227° Southwest 402 463 20,600 -2,098 Descending Albuquerque Center
Sat 10:52:52 AM 33.9975 -111.2567 227° Southwest 388 447 18,500 -2,195 Descending Albuquerque Center
Sat 10:53:54 AM 33.9144 -111.3633 227° Southwest 365 420 16,100 -1,790 Descending Albuquerque Center
Sat 10:54:56 AM 33.8547 -111.4550 232° Southwest 351 404 14,800 -1,548 Descending Albuquerque Center
Sat 10:55:58 AM 33.8031 -111.5539 238° Southwest 346 398 12,900 -1,707 Descending Albuquerque Center
Sat 10:56:59 AM 33.7547 -111.6444 237° Southwest 323 372 11,300 -1,415 Descending Albuquerque Center
Sat 10:58:01 AM 33.7111 -111.7275 238° Southwest 296 341 10,000 -629 Descending Albuquerque Center
Sat 10:59:03 AM 33.6717 -111.7983 236° Southwest 255 293 10,000 -48 Level Albuquerque Center
Sat 11:00:05 AM 33.6331 -111.8678 236° Southwest 249 287 9,900 -484 Descending Albuquerque Center
Sat 11:01:07 AM 33.5953 -111.9386 237° Southwest 252 290 9,000 -878 Descending Albuquerque Center
Sat 11:02:08 AM 33.5592 -112.0089 238° Southwest 247 284 8,100 -976 Descending Albuquerque Center
Sat 11:03:10 AM 33.5258 -112.0894 244° Southwest 228 262 7,000 -581 Descending Albuquerque Center
Sat 11:04:12 AM 33.5267 -112.1569 271° West 204 235 6,900 -629 Descending Albuquerque Center
Sat 11:05:14 AM 33.5256 -112.2253 269° West 205 236 5,700 -1,113 Descending Albuquerque Center
Sat 11:06:16 AM 33.4772 -112.2361 191° South 198 228 4,600 -1,122 Descending Albuquerque Center
Sat 11:07:17 AM 33.4467 -112.1889 128° Southeast 186 214 3,400 -878 Descending Albuquerque Center
Sat 11:08:19 AM 33.4406 -112.1306 97° East 178 205 2,800 -677 Descending Albuquerque Center
Sat 11:09:21 AM 33.4403 -112.0778 90° East 162 186 2,000 -823 Descending Albuquerque Center
Sat 11:10:23 AM 33.4411 -112.0256 89° East 135 155 1,100 -871 Descending Albuquerque Center

Login

Don't have an account? Register now (free) for customized features, flight alerts, and more!